Time;durP1;ratioP1;P1;durP2;ratioP2;P2;SDS_P1;SDS_P2;PMS_P1;PMS_P2;Temp;Humidity;BMP_temperature;BMP_pressure;BME280_temperature;BME280_humidity;BME280_pressure;Samples;Min_cycle;Max_cycle;Signal;HPM_P1;HPM_P2
2023/08/14 00:01:40;;;;;;;9.05;3.13;;;;;;;17.03;100.00;101609.69;5090010;28;20375;-58
2023/08/14 00:04:05;;;;;;;12.05;3.40;;;;;;;16.95;100.00;101596.78;5088791;28;20051;-59
2023/08/14 00:06:31;;;;;;;11.68;3.45;;;;;;;16.95;100.00;101603.91;5089946;28;20020;-61
2023/08/14 00:08:56;;;;;;;10.60;4.05;;;;;;;16.90;100.00;101602.34;5090103;28;20107;-60
2023/08/14 00:11:21;;;;;;;12.20;3.85;;;;;;;16.86;100.00;101602.56;5089563;28;20024;-60
2023/08/14 00:13:51;;;;;;;12.85;4.05;;;;;;;16.85;100.00;101606.13;5090187;28;20028;-60
2023/08/14 00:16:16;;;;;;;15.45;4.40;;;;;;;16.86;100.00;101605.22;5089102;28;20020;-60
2023/08/14 00:18:41;;;;;;;9.32;4.40;;;;;;;16.85;100.00;101596.34;5089268;28;20503;-60
2023/08/14 00:21:07;;;;;;;13.95;4.40;;;;;;;16.82;100.00;101593.84;5090051;28;20070;-61
2023/08/14 00:23:32;;;;;;;12.45;4.60;;;;;;;16.82;100.00;101596.50;5082495;28;20049;-60
2023/08/14 00:25:57;;;;;;;14.35;4.45;;;;;;;16.83;100.00;101598.25;5069980;28;20524;-60
2023/08/14 00:28:23;;;;;;;11.57;4.38;;;;;;;16.78;100.00;101595.81;5069193;28;20150;-60
2023/08/14 00:30:48;;;;;;;14.25;4.38;;;;;;;16.77;100.00;101585.22;5069395;28;20028;-60
2023/08/14 00:33:13;;;;;;;14.57;4.68;;;;;;;16.77;100.00;101582.56;5052353;28;20115;-61
2023/08/14 00:35:39;;;;;;;17.15;4.70;;;;;;;16.75;100.00;101579.97;5068616;28;20424;-62
2023/08/14 00:38:04;;;;;;;11.77;4.30;;;;;;;16.76;100.00;101587.03;5068859;28;20083;-55
2023/08/14 00:40:29;;;;;;;17.67;5.78;;;;;;;16.79;100.00;101576.22;5069267;28;20339;-65
2023/08/14 00:42:55;;;;;;;15.90;4.90;;;;;;;16.76;100.00;101576.38;5069404;28;20085;-61
2023/08/14 00:45:20;;;;;;;15.90;4.70;;;;;;;16.79;100.00;101581.56;5087226;28;20051;-60
2023/08/14 00:47:46;;;;;;;10.45;4.40;;;;;;;16.76;100.00;101579.03;5088284;28;20039;-60
2023/08/14 00:50:12;;;;;;;15.23;5.22;;;;;;;16.83;100.00;101570.75;5087492;28;20085;-59
2023/08/14 00:52:41;;;;;;;12.57;4.78;;;;;;;16.77;100.00;101585.22;5071012;28;20039;-60
2023/08/14 00:55:12;;;;;;;15.77;5.25;;;;;;;16.76;100.00;101575.50;5070166;28;20107;-60
2023/08/14 00:57:38;;;;;;;17.00;5.05;;;;;;;16.76;100.00;101572.84;5084795;28;20032;-61
2023/08/14 01:00:05;;;;;;;20.00;5.68;;;;;;;16.75;100.00;101571.13;5088379;28;20020;-60
2023/08/14 01:02:31;;;;;;;15.25;5.07;;;;;;;16.78;100.00;101573.63;5087525;28;20020;-60
2023/08/14 01:04:56;;;;;;;20.42;5.40;;;;;;;16.82;100.00;101569.03;5070512;28;20024;-59
2023/08/14 01:07:21;;;;;;;15.35;5.78;;;;;;;16.80;100.00;101571.78;5088414;28;20016;-62
2023/08/14 01:12:37;;;;;;;9.70;4.97;;;;;;;16.74;100.00;101580.06;5027488;28;20049;-60
2023/08/14 01:15:06;;;;;;;14.73;5.00;;;;;;;16.73;100.00;101581.84;5010939;28;20037;-61
2023/08/14 01:17:35;;;;;;;16.10;5.35;;;;;;;16.68;100.00;101573.25;5010091;28;20027;-61
2023/08/14 01:20:01;;;;;;;10.00;4.90;;;;;;;16.68;100.00;101576.75;5010952;28;20029;-61
2023/08/14 01:23:06;;;;;;;17.20;6.28;;;;;;;16.61;100.00;101567.34;5013834;28;20029;-60
2023/08/14 01:25:33;;;;;;;21.08;5.70;;;;;;;16.62;100.00;101557.56;5027915;28;20032;-58
2023/08/14 01:27:59;;;;;;;18.52;5.60;;;;;;;16.60;100.00;101562.97;5025315;28;20025;-61
2023/08/14 01:30:25;;;;;;;18.33;6.30;;;;;;;16.56;100.00;101556.06;5027701;28;20124;-61
2023/08/14 01:32:51;;;;;;;17.20;6.45;;;;;;;16.54;100.00;101553.47;5027064;28;20060;-60
2023/08/14 01:35:21;;;;;;;19.35;6.32;;;;;;;16.58;100.00;101551.50;4993855;28;20076;-59
2023/08/14 01:37:54;;;;;;;16.65;6.10;;;;;;;16.57;100.00;101552.47;5028068;28;20029;-60
2023/08/14 01:40:34;;;;;;;20.38;7.80;;;;;;;16.56;100.00;101532.13;5010274;28;20036;-60
2023/08/14 01:43:03;;;;;;;12.60;7.00;;;;;;;16.55;100.00;101533.03;5028276;28;20072;-62
2023/08/14 01:45:30;;;;;;;16.15;7.32;;;;;;;16.57;100.00;101527.66;5027532;28;20650;-62
2023/08/14 01:47:57;;;;;;;15.38;7.10;;;;;;;16.51;100.00;101531.47;5009349;28;20021;-58
2023/08/14 01:50:24;;;;;;;13.32;6.43;;;;;;;16.54;100.00;101531.31;5010835;28;20053;-58
2023/08/14 01:52:49;;;;;;;17.15;6.90;;;;;;;16.51;100.00;101523.50;5009093;28;20044;-61
2023/08/14 01:55:15;;;;;;;20.63;7.30;;;;;;;16.47;100.00;101527.25;5028826;28;20034;-60
2023/08/14 01:57:40;;;;;;;15.27;7.32;;;;;;;16.48;100.00;101519.19;5027373;28;20211;-61
2023/08/14 02:00:09;;;;;;;17.67;7.57;;;;;;;16.47;100.00;101521.91;5027454;28;20061;-61
2023/08/14 02:02:34;;;;;;;;;;;;;;;16.44;100.00;101519.41;5027716;28;20022;-61
2023/08/14 02:05:00;;;;;;;15.18;6.97;;;;;;;16.40;100.00;101511.56;5034926;28;19913;-60
2023/08/14 02:07:25;;;;;;;14.07;7.40;;;;;;;16.40;100.00;101516.88;5048345;28;20087;-61
2023/08/14 02:09:50;;;;;;;13.52;7.30;;;;;;;16.38;100.00;101512.59;5047812;28;20106;-58
2023/08/14 02:12:16;;;;;;;19.67;9.13;;;;;;;16.33;100.00;101504.81;5047683;28;20044;-60
2023/08/14 02:14:41;;;;;;;18.05;9.02;;;;;;;16.39;100.00;101508.97;5048162;28;20052;-60
2023/08/14 02:17:06;;;;;;;20.25;9.32;;;;;;;16.38;100.00;101505.44;5037783;28;20041;-61
2023/08/14 02:19:32;;;;;;;18.67;8.38;;;;;;;16.34;100.00;101503.88;5027148;28;20033;-61
2023/08/14 02:21:57;;;;;;;21.70;9.90;;;;;;;16.31;100.00;101508.50;5027624;28;20049;-61
2023/08/14 02:24:22;;;;;;;22.60;9.45;;;;;;;16.26;100.00;101503.41;5028185;28;20613;-60
2023/08/14 02:26:48;;;;;;;18.98;9.50;;;;;;;16.21;100.00;101500.06;5042252;28;20152;-61
2023/08/14 02:29:13;;;;;;;21.35;9.35;;;;;;;16.20;100.00;101509.00;5026948;28;20026;-61
2023/08/14 02:31:39;;;;;;;22.08;9.48;;;;;;;16.15;100.00;101504.78;5026623;28;20053;-59
2023/08/14 02:34:05;;;;;;;19.30;8.88;;;;;;;16.15;100.00;101499.44;5027062;28;20029;-60
2023/08/14 02:36:30;;;;;;;22.15;8.93;;;;;;;16.12;100.00;101502.25;5027075;28;20177;-61
2023/08/14 02:38:56;;;;;;;20.48;8.57;;;;;;;16.12;100.00;101494.28;5026983;28;20033;-58
2023/08/14 02:41:21;;;;;;;17.90;8.00;;;;;;;16.10;100.00;101492.63;5027820;28;20090;-60
2023/08/14 02:43:47;;;;;;;19.90;8.90;;;;;;;16.10;100.00;101501.44;5028820;28;20033;-60
2023/08/14 02:46:12;;;;;;;18.98;8.27;;;;;;;16.12;100.00;101494.28;5024646;28;20033;-60
2023/08/14 02:48:37;;;;;;;19.15;8.85;;;;;;;16.16;100.00;101500.28;5044506;28;20083;-60
2023/08/14 02:51:03;;;;;;;18.55;9.60;;;;;;;16.12;100.00;101496.94;5045966;28;20109;-60
2023/08/14 02:53:28;;;;;;;17.98;8.43;;;;;;;16.10;100.00;101497.94;5045090;28;20024;-60
2023/08/14 02:55:54;;;;;;;17.27;8.30;;;;;;;16.12;100.00;101502.25;5036853;28;20086;-59
2023/08/14 02:58:19;;;;;;;16.35;7.90;;;;;;;16.07;100.00;101509.56;5029389;28;20029;-61
2023/08/14 03:00:46;;;;;;;19.65;8.52;;;;;;;16.13;100.00;101503.97;5045906;28;20060;-61
2023/08/14 03:03:11;;;;;;;14.07;8.18;;;;;;;16.12;100.00;101512.88;5047242;28;20446;-60
2023/08/14 03:05:37;;;;;;;18.40;8.77;;;;;;;16.11;100.00;101508.50;5046188;28;20021;-60
2023/08/14 03:08:03;;;;;;;20.42;8.95;;;;;;;16.12;100.00;101507.56;5047500;28;20051;-60
2023/08/14 03:10:29;;;;;;;17.23;8.65;;;;;;;16.04;100.00;101507.91;5046205;28;20037;-58
2023/08/14 03:12:55;;;;;;;15.05;7.78;;;;;;;16.03;100.00;101513.31;5046165;28;20047;-61
2023/08/14 03:15:21;;;;;;;17.10;8.15;;;;;;;16.00;100.00;101503.69;5029446;28;20031;-59
2023/08/14 03:17:46;;;;;;;20.73;9.02;;;;;;;16.00;100.00;101497.50;5045544;28;20112;-60
2023/08/14 03:20:12;;;;;;;16.00;7.53;;;;;;;15.96;100.00;101510.09;5047286;28;20140;-61
2023/08/14 03:22:37;;;;;;;15.18;7.60;;;;;;;15.96;100.00;101514.50;5028800;28;20509;-60
2023/08/14 03:25:03;;;;;;;14.00;7.97;;;;;;;15.91;100.00;101502.28;5040751;28;20026;-61
2023/08/14 03:27:29;;;;;;;15.90;6.93;;;;;;;15.88;100.00;101507.75;5027363;28;20029;-60
2023/08/14 03:29:54;;;;;;;14.32;7.80;;;;;;;15.91;100.00;101504.94;5009388;28;20036;-59
2023/08/14 03:32:20;;;;;;;15.25;7.50;;;;;;;15.89;100.00;101500.59;5017029;28;20043;-60
2023/08/14 03:34:45;;;;;;;14.32;7.72;;;;;;;15.87;100.00;101503.34;5039996;28;20021;-60
2023/08/14 03:37:10;;;;;;;12.45;7.53;;;;;;;15.86;100.00;101501.63;5030357;28;20112;-60
2023/08/14 03:39:35;;;;;;;16.70;8.25;;;;;;;15.83;100.00;101501.75;5029313;28;20036;-61
2023/08/14 03:42:01;;;;;;;16.25;7.88;;;;;;;15.83;100.00;101496.44;5030263;28;20411;-59
2023/08/14 03:44:26;;;;;;;15.65;8.23;;;;;;;15.85;100.00;101493.72;5029938;28;20399;-58
2023/08/14 03:46:52;;;;;;;12.60;7.05;;;;;;;15.90;100.00;101507.66;5030095;28;20037;-60
2023/08/14 03:49:17;;;;;;;18.88;8.07;;;;;;;15.98;100.00;101507.34;5029849;28;20057;-61
2023/08/14 03:51:42;;;;;;;17.13;8.95;;;;;;;15.91;100.00;101504.94;5029986;28;20025;-60
2023/08/14 03:54:08;;;;;;;18.95;8.20;;;;;;;15.95;100.00;101500.34;5029516;28;20112;-60
2023/08/14 03:56:33;;;;;;;14.52;7.38;;;;;;;15.96;100.00;101511.84;5029563;28;20448;-61
2023/08/14 03:58:58;;;;;;;16.77;7.13;;;;;;;15.98;100.00;101508.19;5030094;28;20248;-59
2023/08/14 04:01:24;;;;;;;17.65;7.00;;;;;;;16.00;100.00;101508.13;5025565;28;20029;-60
2023/08/14 04:03:49;;;;;;;14.65;6.95;;;;;;;16.03;100.00;101505.34;5020040;28;20483;-61
2023/08/14 04:06:14;;;;;;;11.15;6.65;;;;;;;16.01;100.00;101504.53;5029900;28;20060;-61
2023/08/14 04:08:40;;;;;;;16.35;7.50;;;;;;;15.97;100.00;101498.50;5033600;28;20017;-60
2023/08/14 04:11:05;;;;;;;15.18;6.90;;;;;;;15.98;100.00;101504.69;5037639;28;20092;-60
2023/08/14 04:13:30;;;;;;;13.15;7.30;;;;;;;16.03;100.00;101500.00;5029593;28;20045;-61
2023/08/14 04:15:59;;;;;;;11.77;7.13;;;;;;;16.08;100.00;101498.03;5029220;28;20053;-61
2023/08/14 04:18:26;;;;;;;15.45;6.80;;;;;;;16.05;100.00;101498.16;5011287;28;20511;-60
2023/08/14 04:20:52;;;;;;;16.13;6.32;;;;;;;16.12;100.00;101498.72;5030025;28;20535;-60
2023/08/14 04:23:17;;;;;;;12.60;6.65;;;;;;;16.11;100.00;101497.00;5029498;28;20057;-59
2023/08/14 04:25:43;;;;;;;13.60;6.70;;;;;;;16.13;100.00;101498.66;5044815;28;20025;-60
2023/08/14 04:28:08;;;;;;;12.18;6.07;;;;;;;16.11;100.00;101499.66;5048877;28;20104;-60
2023/08/14 04:30:33;;;;;;;10.65;6.38;;;;;;;16.12;100.00;101502.25;5048726;28;20076;-60
2023/08/14 04:32:59;;;;;;;15.73;5.97;;;;;;;16.11;100.00;101494.34;5033865;28;20030;-61
2023/08/14 04:35:24;;;;;;;9.82;5.55;;;;;;;16.14;100.00;101497.69;5029620;28;20158;-58
2023/08/14 04:37:49;;;;;;;13.02;6.68;;;;;;;16.17;100.00;101494.91;5028554;28;20029;-59
2023/08/14 04:40:15;;;;;;;13.70;5.97;;;;;;;16.24;100.00;101486.63;5029640;28;20021;-60
2023/08/14 04:42:40;;;;;;;12.02;5.90;;;;;;;16.27;100.00;101482.06;5028718;28;20032;-60
2023/08/14 04:45:06;;;;;;;12.77;5.75;;;;;;;16.26;100.00;101482.13;5028990;28;20618;-60
2023/08/14 04:47:31;;;;;;;10.50;5.50;;;;;;;16.28;100.00;101477.56;5028339;28;20029;-62
2023/08/14 04:49:57;;;;;;;7.82;5.18;;;;;;;16.31;100.00;101476.59;5028314;28;20018;-60
2023/08/14 04:52:22;;;;;;;10.55;5.22;;;;;;;16.37;100.00;101479.81;5029281;28;20029;-58
2023/08/14 04:54:48;;;;;;;10.88;5.57;;;;;;;16.49;100.00;101474.81;5041262;28;20052;-60
2023/08/14 04:57:13;;;;;;;8.88;5.60;;;;;;;16.47;100.00;101474.91;5048638;28;20053;-61
2023/08/14 04:59:39;;;;;;;12.23;5.55;;;;;;;16.51;100.00;101464.97;5046986;28;20457;-62
2023/08/14 05:02:04;;;;;;;13.05;5.60;;;;;;;16.52;100.00;101467.56;5046877;28;20390;-59
2023/08/14 05:04:30;;;;;;;13.88;5.88;;;;;;;16.58;100.00;101477.03;5047357;28;20029;-59
2023/08/14 05:06:55;;;;;;;9.82;5.10;;;;;;;16.64;100.00;101466.09;5047426;28;20497;-60
2023/08/14 05:09:20;;;;;;;12.60;5.32;;;;;;;16.67;100.00;101465.94;5048070;28;20029;-57
2023/08/14 05:11:46;;;;;;;10.73;5.10;;;;;;;16.76;100.00;101453.97;5047283;28;20053;-59
2023/08/14 05:14:11;;;;;;;16.48;5.82;;;;;;;16.78;100.00;101453.88;5032153;28;20031;-62
2023/08/14 05:16:36;;;;;;;12.27;5.90;;;;;;;16.82;100.00;101463.44;5027177;28;20067;-57
2023/08/14 05:19:02;;;;;;;8.98;4.60;;;;;;;16.89;100.00;101464.84;5026030;28;20505;-61
2023/08/14 05:21:27;;;;;;;10.13;5.35;;;;;;;16.94;100.00;101472.59;5028440;28;20029;-60
2023/08/14 05:23:52;;;;;;;10.77;5.25;;;;;;;17.01;100.00;101462.50;5032143;28;20120;-55
2023/08/14 05:26:18;;;;;;;11.00;4.72;;;;;;;17.11;100.00;101466.47;5028121;28;20099;-61
2023/08/14 05:28:43;;;;;;;12.23;5.97;;;;;;;17.14;100.00;101468.09;5026411;28;20040;-58
2023/08/14 05:31:08;;;;;;;11.75;5.65;;;;;;;17.14;100.00;101474.28;5027558;28;20111;-59
2023/08/14 05:33:34;;;;;;;9.85;5.13;;;;;;;17.17;100.00;101471.47;5026670;28;20033;-60
2023/08/14 05:35:59;;;;;;;11.70;5.90;;;;;;;17.21;100.00;101471.28;5027264;28;20127;-61
2023/08/14 05:38:24;;;;;;;15.88;6.00;;;;;;;17.26;100.00;101469.25;5036192;28;20029;-61
2023/08/14 05:40:50;;;;;;;10.77;5.68;;;;;;;17.31;100.00;101469.88;5047661;28;20021;-61
2023/08/14 05:43:15;;;;;;;9.93;5.57;;;;;;;17.42;100.00;101478.16;5045723;28;20108;-62
2023/08/14 05:45:45;;;;;;;11.15;6.00;;;;;;;17.50;100.00;101472.44;5046750;28;20029;-63
2023/08/14 05:48:11;;;;;;;8.27;5.05;;;;;;;17.62;100.00;101470.91;5046510;28;20029;-60
2023/08/14 05:50:37;;;;;;;10.95;5.03;;;;;;;17.70;100.00;101469.63;5023509;28;20438;-62
2023/08/14 05:53:04;;;;;;;9.68;5.50;;;;;;;17.78;100.00;101467.41;5026707;28;20104;-61
2023/08/14 05:55:30;;;;;;;11.07;5.90;;;;;;;17.81;100.00;101464.56;5027714;28;20043;-60
2023/08/14 05:57:56;;;;;;;12.48;6.07;;;;;;;17.98;100.00;101474.31;5046867;28;20025;-61
2023/08/14 06:00:22;;;;;;;11.55;6.10;;;;;;;18.09;100.00;101479.03;5046045;28;20047;-59
2023/08/14 06:02:47;;;;;;;7.05;4.90;;;;;;;18.14;100.00;101479.69;5046340;28;20025;-62
2023/08/14 06:05:13;;;;;;;7.40;5.03;;;;;;;18.17;100.00;101479.50;5026307;28;20021;-63
2023/08/14 06:07:38;;;;;;;9.30;5.35;;;;;;;18.23;100.00;101488.09;5026133;28;20052;-57
2023/08/14 06:10:05;;;;;;;11.88;5.55;;;;;;;18.31;100.00;101478.72;5025941;28;20057;-63
2023/08/14 06:12:31;;;;;;;13.02;5.50;;;;;;;18.39;100.00;101478.28;5025847;28;20446;-62
2023/08/14 06:14:56;;;;;;;12.93;5.72;;;;;;;18.41;100.00;101471.06;5026074;28;20029;-63
2023/08/14 06:17:22;;;;;;;11.90;5.88;;;;;;;18.52;100.00;101483.81;5008864;28;20068;-63
2023/08/14 06:19:47;;;;;;;7.80;5.28;;;;;;;18.59;100.00;101478.94;5025214;28;20108;-60
2023/08/14 06:22:12;;;;;;;12.65;5.78;;;;;;;18.67;100.00;101468.69;5027492;28;20057;-62
2023/08/14 06:24:38;;;;;;;8.82;5.80;;;;;;;18.71;100.00;101472.03;5026532;28;20514;-61
2023/08/14 06:27:03;;;;;;;8.77;5.93;;;;;;;18.85;100.00;101478.38;5025773;28;20345;-61
2023/08/14 06:29:28;;;;;;;8.75;4.88;;;;;;;19.03;100.00;101477.28;5027784;28;20029;-63
2023/08/14 06:31:54;;;;;;;10.43;4.88;;;;;;;19.23;100.00;101477.06;5026155;28;20053;-61
2023/08/14 06:34:19;;;;;;;12.63;6.40;;;;;;;19.21;100.00;101470.97;5025964;28;20037;-62
2023/08/14 06:36:44;;;;;;;10.48;4.53;;;;;;;19.41;100.00;101473.25;5026223;28;20021;-62
2023/08/14 06:39:09;;;;;;;10.25;4.93;;;;;;;19.45;100.00;101482.81;5026847;28;20057;-62
2023/08/14 06:41:35;;;;;;;6.35;4.38;;;;;;;19.53;100.00;101481.47;5027543;28;20465;-58
2023/08/14 06:44:00;;;;;;;11.35;4.75;;;;;;;19.62;100.00;101494.25;5026022;28;20686;-62
2023/08/14 06:46:25;;;;;;;10.15;4.65;;;;;;;19.70;100.00;101481.31;5026312;28;20586;-64
2023/08/14 06:48:51;;;;;;;9.93;4.82;;;;;;;19.92;100.00;101485.28;5026821;28;20036;-62
2023/08/14 06:51:16;;;;;;;7.53;4.13;;;;;;;19.86;100.00;101487.50;5027028;28;20092;-65
2023/08/14 06:53:42;;;;;;;7.35;4.22;;;;;;;19.84;100.00;101492.94;5028035;28;20033;-62
2023/08/14 06:56:07;;;;;;;7.05;4.35;;;;;;;19.75;100.00;101483.66;5044989;28;20067;-64
2023/08/14 06:58:32;;;;;;;7.22;4.50;;;;;;;19.75;100.00;101496.19;5027092;28;20025;-64
2023/08/14 07:00:58;;;;;;;9.02;3.80;;;;;;;19.77;100.00;101502.28;5041406;28;20017;-62
2023/08/14 07:03:24;;;;;;;9.25;4.40;;;;;;;19.88;100.00;101490.91;5007103;28;20382;-62
2023/08/14 07:05:49;;;;;;;6.22;3.47;;;;;;;19.97;100.00;101481.44;5010712;28;20092;-62
2023/08/14 07:08:14;;;;;;;7.43;3.58;;;;;;;20.11;100.00;101496.66;5031856;28;20032;-60
2023/08/14 07:10:40;;;;;;;4.47;3.42;;;;;;;20.42;100.00;101503.56;5033505;28;20452;-62
2023/08/14 07:13:06;;;;;;;6.10;3.30;;;;;;;20.52;100.00;101494.91;5031289;28;20533;-63
2023/08/14 07:15:32;;;;;;;6.20;3.42;;;;;;;20.57;100.00;101493.66;5029212;28;20025;-62
2023/08/14 07:17:57;;;;;;;6.78;3.00;;;;;;;20.69;100.00;101494.66;5028864;28;20022;-63
2023/08/14 07:20:23;;;;;;;4.97;2.80;;;;;;;20.79;100.00;101499.38;5028424;28;20530;-61
2023/08/14 07:22:48;;;;;;;5.63;2.88;;;;;;;20.79;100.00;101499.38;5025703;28;20076;-62
2023/08/14 07:25:13;;;;;;;6.97;2.88;;;;;;;20.82;100.00;101505.41;5028335;28;20025;-62
2023/08/14 07:27:39;;;;;;;5.47;2.33;;;;;;;20.72;100.00;101509.66;5028825;28;20103;-63
2023/08/14 07:30:05;;;;;;;6.10;2.17;;;;;;;20.68;100.00;101511.66;5029466;28;20021;-61
2023/08/14 07:32:31;;;;;;;3.67;2.25;;;;;;;20.68;100.00;101508.16;5029725;28;20272;-65
2023/08/14 07:34:56;;;;;;;5.10;2.28;;;;;;;20.73;100.00;101500.66;5028171;28;20419;-63
2023/08/14 07:37:22;;;;;;;3.65;1.80;;;;;;;20.75;100.00;101503.22;5028766;28;20341;-59
2023/08/14 07:39:47;;;;;;;4.43;2.13;;;;;;;20.75;100.00;101497.88;5028924;28;20037;-61
2023/08/14 07:42:13;;;;;;;3.10;1.80;;;;;;;20.70;100.00;101500.84;5028703;28;20022;-61
2023/08/14 07:44:38;;;;;;;4.05;1.80;;;;;;;20.71;100.00;101503.44;5028952;28;20031;-64
2023/08/14 07:47:04;;;;;;;3.67;1.92;;;;;;;20.79;100.00;101489.53;5030759;28;20560;-63
2023/08/14 07:49:34;;;;;;;6.57;1.83;;;;;;;20.81;100.00;101482.28;5027041;28;20451;-62
2023/08/14 07:51:59;;;;;;;4.72;1.60;;;;;;;20.84;100.00;101475.84;5027512;28;20033;-62
2023/08/14 07:54:25;;;;;;;4.22;1.23;;;;;;;21.08;100.00;101472.47;5010734;28;20445;-61
2023/08/14 07:56:52;;;;;;;5.00;1.80;;;;;;;21.27;100.00;101469.38;5028516;28;20020;-61
2023/08/14 07:59:18;;;;;;;5.80;1.85;;;;;;;21.36;100.00;101478.59;5030104;28;20464;-59
2023/08/14 08:01:44;;;;;;;10.50;1.83;;;;;;;21.49;100.00;101485.78;5029672;28;20393;-62
2023/08/14 08:04:09;;;;;;;3.53;1.90;;;;;;;21.64;100.00;101478.47;5027623;28;20533;-62
2023/08/14 08:06:35;;;;;;;3.20;1.42;;;;;;;21.63;100.00;101461.53;5026911;28;20068;-61
2023/08/14 08:09:00;;;;;;;3.33;1.40;;;;;;;21.69;100.00;101457.53;5009786;28;20096;-62
2023/08/14 08:11:26;;;;;;;6.85;1.50;;;;;;;21.79;100.00;101460.47;5026768;28;20041;-61
2023/08/14 08:13:51;;;;;;;4.00;1.42;;;;;;;21.85;100.00;101454.63;5029006;28;20100;-60
2023/08/14 08:16:17;;;;;;;8.27;1.70;;;;;;;21.82;100.00;101460.22;5027910;28;20384;-61
2023/08/14 08:18:42;;;;;;;4.70;1.42;;;;;;;21.91;100.00;101459.56;5027593;28;20036;-62
2023/08/14 08:21:08;;;;;;;4.97;1.73;;;;;;;21.98;100.00;101467.16;5026326;28;20080;-62
2023/08/14 08:23:33;;;;;;;7.95;1.77;;;;;;;22.06;100.00;101467.44;5008071;28;20035;-60
2023/08/14 08:25:58;;;;;;;6.15;1.52;;;;;;;22.16;100.00;101467.66;5010767;28;20452;-62
2023/08/14 08:28:24;;;;;;;5.85;1.23;;;;;;;22.13;100.00;101462.50;5029011;28;20515;-62
2023/08/14 08:30:49;;;;;;;4.70;1.20;;;;;;;22.37;100.00;101454.47;5028843;28;20032;-61
2023/08/14 08:33:14;;;;;;;6.57;1.40;;;;;;;22.46;98.53;101450.22;5026513;28;20097;-61
2023/08/14 08:35:40;;;;;;;4.43;1.50;;;;;;;22.41;98.72;101442.53;5028241;28;20091;-63
2023/08/14 08:38:05;;;;;;;3.97;1.30;;;;;;;22.51;100.00;101436.47;5027458;28;20447;-62
2023/08/14 08:40:31;;;;;;;3.58;1.45;;;;;;;22.54;100.00;101449.63;5026668;28;20036;-62
2023/08/14 08:42:58;;;;;;;3.47;1.20;;;;;;;22.62;100.00;101451.78;5010480;28;20399;-63
2023/08/14 08:45:31;;;;;;;4.05;1.70;;;;;;;22.63;100.00;101459.72;5007825;28;20018;-61
2023/08/14 08:48:02;;;;;;;3.08;1.60;;;;;;;22.67;100.00;101469.25;5024423;28;20143;-62
2023/08/14 08:50:31;;;;;;;4.43;1.52;;;;;;;22.84;100.00;101467.97;5008507;28;20035;-61
2023/08/14 08:52:56;;;;;;;3.08;1.70;;;;;;;22.77;100.00;101472.09;5026351;28;20503;-62
2023/08/14 08:55:22;;;;;;;2.83;1.65;;;;;;;22.81;100.00;101470.03;5028874;28;20152;-61
2023/08/14 08:57:53;;;;;;;5.70;1.85;;;;;;;22.84;100.00;101481.41;5027354;28;20029;-60
2023/08/14 09:00:18;;;;;;;7.07;2.55;;;;;;;22.86;100.00;101470.53;5010288;28;20068;-60
2023/08/14 09:02:45;;;;;;;5.55;2.05;;;;;;;22.95;100.00;101479.72;5005870;28;20069;-63
2023/08/14 09:05:10;;;;;;;8.25;2.28;;;;;;;22.97;100.00;101473.25;5027159;28;20026;-61
2023/08/14 09:07:36;;;;;;;7.32;2.40;;;;;;;23.10;100.00;101475.00;5026916;28;20574;-63
2023/08/14 09:10:01;;;;;;;5.00;2.13;;;;;;;23.20;100.00;101473.31;5025702;28;20473;-62
2023/08/14 09:12:27;;;;;;;6.40;2.67;;;;;;;23.09;100.00;101465.22;5026607;28;20072;-63
2023/08/14 09:15:01;;;;;;;6.85;2.25;;;;;;;23.08;100.00;101458.13;5027072;28;20075;-60
2023/08/14 09:17:27;;;;;;;5.93;2.30;;;;;;;23.07;100.00;101457.28;5026432;28;20025;-62
2023/08/14 09:19:52;;;;;;;4.63;2.40;;;;;;;23.12;100.00;101454.25;5025758;28;20075;-61
2023/08/14 09:22:17;;;;;;;6.72;2.42;;;;;;;23.23;100.00;101443.50;5026691;28;20064;-63
2023/08/14 09:24:43;;;;;;;7.93;2.13;;;;;;;23.50;100.00;101446.00;5025979;28;20092;-58
2023/08/14 09:27:08;;;;;;;7.22;2.53;;;;;;;23.56;100.00;101442.78;5026357;28;20048;-64
2023/08/14 09:29:33;;;;;;;5.80;2.17;;;;;;;23.43;100.00;101440.22;5025673;28;20037;-63
2023/08/14 09:32:00;;;;;;;7.50;2.08;;;;;;;23.69;100.00;101446.19;5008723;28;20033;-61
2023/08/14 09:34:25;;;;;;;6.55;2.10;;;;;;;23.83;100.00;101439.72;5026782;28;20033;-62
2023/08/14 09:36:51;;;;;;;9.43;2.55;;;;;;;23.76;100.00;101441.19;5026274;28;20033;-61
2023/08/14 09:39:17;;;;;;;6.75;2.30;;;;;;;23.89;100.00;101437.50;5008753;28;20028;-62
2023/08/14 09:41:48;;;;;;;9.77;3.00;;;;;;;23.97;100.00;101433.22;5010590;28;20224;-62
2023/08/14 09:44:14;;;;;;;6.72;2.08;;;;;;;24.15;100.00;101438.09;5011115;28;20029;-63
2023/08/14 09:46:40;;;;;;;6.35;2.03;;;;;;;24.28;100.00;101427.16;5025505;28;20519;-59
2023/08/14 09:49:05;;;;;;;6.90;2.28;;;;;;;24.42;99.69;101426.00;5025876;28;20388;-62
2023/08/14 09:51:31;;;;;;;6.32;1.98;;;;;;;24.52;97.68;101426.06;5025135;28;20033;-62
2023/08/14 09:53:57;;;;;;;6.45;2.20;;;;;;;24.50;98.06;101422.63;5025626;28;20468;-62
2023/08/14 09:56:24;;;;;;;6.88;2.28;;;;;;;24.60;96.24;101412.78;5025978;28;20048;-62
2023/08/14 09:58:49;;;;;;;7.70;1.98;;;;;;;24.65;97.20;101420.47;5026160;28;20021;-60
2023/08/14 10:01:17;;;;;;;9.73;2.22;;;;;;;24.69;94.60;101413.00;5005131;28;20100;-61
2023/08/14 10:03:43;;;;;;;5.57;1.92;;;;;;;24.88;95.44;101415.00;5006084;28;20326;-62
2023/08/14 10:06:10;;;;;;;6.93;2.00;;;;;;;24.86;91.16;101403.44;5024741;28;20117;-59
2023/08/14 10:08:36;;;;;;;6.30;1.93;;;;;;;24.87;91.82;101418.69;5022236;28;20034;-61
2023/08/14 10:11:05;;;;;;;6.45;2.03;;;;;;;25.06;89.41;101411.69;5006750;28;20040;-61
2023/08/14 10:13:32;;;;;;;7.65;2.17;;;;;;;24.89;93.69;101405.91;5004695;28;20021;-63
2023/08/14 10:16:00;;;;;;;6.85;1.92;;;;;;;25.12;89.35;101411.16;5008167;28;20025;-62
2023/08/14 10:18:29;;;;;;;6.72;2.13;;;;;;;25.43;88.01;101415.69;5006314;28;20029;-63
2023/08/14 10:20:55;;;;;;;3.60;1.83;;;;;;;25.52;88.59;101406.75;5007441;28;20018;-63
2023/08/14 10:23:21;;;;;;;5.55;1.60;;;;;;;25.86;85.96;101402.91;5007481;28;20030;-62
2023/08/14 10:25:50;;;;;;;5.82;1.70;;;;;;;25.98;83.17;101395.53;5008219;28;20021;-58
2023/08/14 10:28:16;;;;;;;3.92;1.83;;;;;;;26.12;80.24;101394.25;5008303;28;20064;-62
2023/08/14 10:30:41;;;;;;;6.22;2.00;;;;;;;25.86;79.92;101387.56;5026369;28;20095;-61
2023/08/14 10:33:07;;;;;;;9.27;1.63;;;;;;;25.99;82.46;101375.63;5006865;28;20021;-63
2023/08/14 10:35:55;;;;;;;7.07;1.92;;;;;;;26.18;82.45;101382.88;5025026;28;20325;-61
2023/08/14 10:38:22;;;;;;;5.88;2.35;;;;;;;26.25;83.07;101386.72;5005718;28;20104;-62
2023/08/14 10:41:04;;;;;;;8.20;1.70;;;;;;;26.15;83.98;101391.28;5029178;28;20032;-62
2023/08/14 10:43:29;;;;;;;7.07;2.42;;;;;;;26.18;83.29;101391.00;5043545;28;20021;-59
2023/08/14 10:45:55;;;;;;;8.07;2.03;;;;;;;26.07;84.07;101389.28;5029504;28;20108;-59
2023/08/14 10:48:20;;;;;;;4.95;1.75;;;;;;;26.47;79.97;101381.19;5028821;28;20144;-61
2023/08/14 10:50:58;;;;;;;5.80;2.10;;;;;;;26.87;80.40;101376.56;5027982;28;20057;-60
2023/08/14 10:53:23;;;;;;;6.30;1.90;;;;;;;27.15;74.70;101395.56;5028431;28;20026;-62
2023/08/14 10:55:49;;;;;;;9.82;1.90;;;;;;;27.29;72.62;101390.66;5028478;28;20857;-62
2023/08/14 10:58:32;;;;;;;5.88;2.10;;;;;;;27.59;71.42;101394.06;5028956;28;20024;-63
2023/08/14 11:01:03;;;;;;;8.13;1.90;;;;;;;27.31;72.85;101392.22;5024127;28;20539;-62
2023/08/14 11:03:30;;;;;;;5.97;1.73;;;;;;;27.54;73.38;101378.28;5010582;28;20468;-61
2023/08/14 11:05:56;;;;;;;5.50;1.83;;;;;;;27.94;67.69;101386.19;5027852;28;20021;-60
2023/08/14 11:08:21;;;;;;;10.18;1.63;;;;;;;28.13;67.09;101379.75;5009192;28;20040;-62
2023/08/14 11:10:49;;;;;;;4.15;1.83;;;;;;;27.73;68.84;101369.25;5027978;28;20648;-59
2023/08/14 11:13:15;;;;;;;5.82;1.60;;;;;;;27.39;71.26;101364.41;5026049;28;20104;-61